createdAt,value
2019-02-27T00:00:38.056Z,102733.38
2019-02-27T00:01:49.634Z,102727.03
2019-02-27T00:02:56.671Z,102725.08
2019-02-27T00:04:03.864Z,102720.25
2019-02-27T00:05:10.788Z,102726.23
2019-02-27T00:06:17.473Z,102721.91
2019-02-27T00:07:24.239Z,102720.41
2019-02-27T00:08:30.912Z,102725.39
2019-02-27T00:09:37.880Z,102720.19
2019-02-27T00:10:44.570Z,102722.36
2019-02-27T00:11:51.588Z,102722.00
2019-02-27T00:12:58.596Z,102721.77
2019-02-27T00:14:05.822Z,102722.41
2019-02-27T00:15:12.748Z,102717.48
2019-02-27T00:16:19.463Z,102718.11
2019-02-27T00:17:26.273Z,102718.21
2019-02-27T00:18:32.917Z,102713.66
2019-02-27T00:19:40.182Z,102711.55
2019-02-27T00:20:47.234Z,102707.00
2019-02-27T00:21:53.968Z,102709.17
2019-02-27T00:23:00.631Z,102707.91
2019-02-27T00:24:07.291Z,102707.95
2019-02-27T00:25:14.010Z,102710.02
2019-02-27T00:26:20.732Z,102707.69
2019-02-27T00:27:27.457Z,102708.89
2019-02-27T00:28:34.560Z,102705.83
2019-02-27T00:29:41.236Z,102705.29
2019-02-27T00:30:47.971Z,102706.56
2019-02-27T00:31:54.686Z,102710.27
2019-02-27T00:33:01.443Z,102702.23
2019-02-27T00:34:08.264Z,102701.02
2019-02-27T00:35:14.957Z,102701.61
2019-02-27T00:36:21.629Z,102700.39
2019-02-27T00:37:28.818Z,102700.08
2019-02-27T00:38:35.949Z,102698.95
2019-02-27T00:39:42.903Z,102701.84
2019-02-27T00:40:49.567Z,102694.98
2019-02-27T00:41:56.274Z,102696.77
2019-02-27T00:43:03.079Z,102691.33
2019-02-27T00:44:10.068Z,102692.31
2019-02-27T00:45:16.998Z,102688.77
2019-02-27T00:46:24.368Z,102689.86
2019-02-27T00:47:31.044Z,102682.20
2019-02-27T00:48:38.449Z,102683.90
2019-02-27T00:49:45.867Z,102677.77
2019-02-27T00:50:53.030Z,102672.70
2019-02-27T00:52:00.390Z,102669.80
2019-02-27T00:53:07.511Z,102669.48
2019-02-27T00:54:14.224Z,102660.91
2019-02-27T00:55:20.954Z,102664.61
2019-02-27T00:56:27.661Z,102662.49
2019-02-27T00:57:34.352Z,102663.22
2019-02-27T00:58:41.326Z,102661.48
2019-02-27T00:59:48.082Z,102661.17
2019-02-27T01:00:55.079Z,102662.19
2019-02-27T01:02:01.777Z,102664.25
2019-02-27T01:03:08.749Z,102660.86
2019-02-27T01:04:15.491Z,102663.81
2019-02-27T01:05:22.214Z,102663.34
2019-02-27T01:06:29.208Z,102661.12
2019-02-27T01:07:35.923Z,102657.73
2019-02-27T01:08:43.208Z,102656.09
2019-02-27T01:09:50.574Z,102653.20
2019-02-27T01:10:57.542Z,102654.98
2019-02-27T01:12:04.414Z,102648.44
2019-02-27T01:13:11.185Z,102651.23
2019-02-27T01:14:18.391Z,102652.13
2019-02-27T01:15:25.546Z,102644.50
2019-02-27T01:16:32.662Z,102643.62
2019-02-27T01:17:39.710Z,102646.94
2019-02-27T01:18:46.410Z,102648.05
2019-02-27T01:19:53.903Z,102649.02
2019-02-27T01:21:00.571Z,102641.99
2019-02-27T01:22:07.261Z,102649.45
2019-02-27T01:23:13.957Z,102648.32
2019-02-27T01:24:20.648Z,102643.97
2019-02-27T01:25:27.817Z,102644.33
2019-02-27T01:26:34.824Z,102646.45
2019-02-27T01:27:41.873Z,102642.21
2019-02-27T01:28:48.606Z,102639.98
2019-02-27T01:29:55.619Z,102637.81
2019-02-27T01:31:02.360Z,102639.52
2019-02-27T01:32:09.062Z,102635.16
2019-02-27T01:33:15.714Z,102638.19
2019-02-27T01:34:22.770Z,102631.16
2019-02-27T01:35:30.092Z,102633.72
2019-02-27T01:36:36.733Z,102634.91
2019-02-27T01:37:43.412Z,102630.75
2019-02-27T01:38:50.347Z,102628.52
2019-02-27T01:39:57.374Z,102626.89
2019-02-27T01:41:04.459Z,102628.27
2019-02-27T01:42:11.409Z,102633.03
2019-02-27T01:43:18.156Z,102626.38
2019-02-27T01:44:24.878Z,102627.34
2019-02-27T01:45:31.902Z,102629.77
2019-02-27T01:46:38.607Z,102620.41
2019-02-27T01:47:45.368Z,102613.18
2019-02-27T01:48:52.406Z,102613.96
2019-02-27T01:49:59.462Z,102611.38
2019-02-27T01:51:06.522Z,102611.84
2019-02-27T01:52:13.313Z,102614.39
2019-02-27T01:53:20.018Z,102611.78
2019-02-27T01:54:26.985Z,102610.77
2019-02-27T01:55:33.994Z,102606.19
2019-02-27T01:56:41.035Z,102602.91
2019-02-27T01:57:47.742Z,102607.56
2019-02-27T01:58:54.416Z,102602.75
2019-02-27T02:00:01.155Z,102607.33
2019-02-27T02:01:08.069Z,102608.19
2019-02-27T02:02:15.098Z,102605.75
2019-02-27T02:03:21.810Z,102611.58
2019-02-27T02:04:28.894Z,102606.55
2019-02-27T02:05:36.041Z,102603.60
2019-02-27T02:06:42.734Z,102598.59
2019-02-27T02:07:49.944Z,102596.47
2019-02-27T02:09:42.056Z,102595.67
2019-02-27T02:10:48.779Z,102593.52
2019-02-27T02:11:55.476Z,102588.21
2019-02-27T02:13:40.304Z,102588.10
2019-02-27T02:14:56.256Z,102583.45
2019-02-27T02:16:41.947Z,102578.27
2019-02-27T02:18:54.071Z,102577.89
2019-02-27T02:20:45.282Z,102572.86
2019-02-27T02:22:46.357Z,102567.31
2019-02-27T02:24:46.854Z,102563.34
2019-02-27T02:26:38.302Z,102557.17
2019-02-27T02:28:56.213Z,102556.33
2019-02-27T02:30:56.694Z,102543.34
2019-02-27T02:33:16.175Z,102540.65
2019-02-27T02:35:20.041Z,102533.16
2019-02-27T02:37:11.238Z,102533.59
2019-02-27T02:39:18.067Z,102525.97
2019-02-27T02:41:46.256Z,102527.98
2019-02-27T02:43:41.990Z,102525.03
2019-02-27T02:45:38.783Z,102519.02
2019-02-27T02:47:21.221Z,102522.77
2019-02-27T02:49:14.101Z,102515.70
2019-02-27T02:51:47.454Z,102511.73
2019-02-27T02:53:37.101Z,102514.73
2019-02-27T02:55:38.673Z,102505.34
2019-02-27T02:57:18.770Z,102499.59
2019-02-27T02:59:12.299Z,102495.63
2019-02-27T03:00:54.414Z,102496.34
2019-02-27T03:02:41.297Z,102497.56
2019-02-27T03:04:39.243Z,102495.69
2019-02-27T03:06:18.312Z,102491.64
2019-02-27T03:08:19.807Z,102485.86
2019-02-27T03:10:08.305Z,102483.63
2019-02-27T03:12:04.087Z,102485.81
2019-02-27T03:14:01.782Z,102477.91
2019-02-27T03:15:45.411Z,102472.66
2019-02-27T03:17:34.849Z,102469.66
2019-02-27T03:19:43.704Z,102461.75
2019-02-27T03:21:40.598Z,102450.91
2019-02-27T03:23:29.508Z,102455.31
2019-02-27T03:25:05.797Z,102458.73
2019-02-27T03:27:00.890Z,102458.62
2019-02-27T03:28:59.535Z,102455.98
2019-02-27T03:30:58.138Z,102451.94
2019-02-27T03:32:18.543Z,102454.22
2019-02-27T03:34:48.187Z,102448.85
2019-02-27T03:36:43.089Z,102447.64
2019-02-27T03:38:13.417Z,102451.20
2019-02-27T03:39:59.978Z,102445.23
2019-02-27T03:42:00.056Z,102438.91
2019-02-27T03:43:45.970Z,102447.03
2019-02-27T03:45:47.648Z,102449.25
2019-02-27T03:47:32.412Z,102452.22
2019-02-27T03:49:19.788Z,102444.44
2019-02-27T03:51:05.038Z,102449.34
2019-02-27T03:53:20.806Z,102447.53
2019-02-27T03:55:06.229Z,102444.09
2019-02-27T03:57:03.532Z,102443.19
2019-02-27T03:58:50.665Z,102438.06
2019-02-27T04:00:37.040Z,102440.59
2019-02-27T04:02:55.955Z,102438.67
2019-02-27T04:05:06.929Z,102439.75
2019-02-27T04:06:36.399Z,102432.77
2019-02-27T04:08:43.560Z,102434.16
2019-02-27T04:09:46.595Z,102427.12
2019-02-27T04:10:53.332Z,102437.24
2019-02-27T04:12:00.535Z,102436.39
2019-02-27T04:13:07.474Z,102437.19
2019-02-27T04:14:40.522Z,102442.36
2019-02-27T04:15:42.884Z,102438.98
2019-02-27T04:16:49.924Z,102440.91
2019-02-27T04:17:54.034Z,102437.90
2019-02-27T04:19:04.527Z,102436.28
2019-02-27T04:20:14.594Z,102437.55
2019-02-27T04:21:25.076Z,102436.28
2019-02-27T04:22:27.833Z,102434.82
2019-02-27T04:23:35.177Z,102433.61
2019-02-27T04:24:42.565Z,102429.70
2019-02-27T04:25:49.572Z,102432.95
2019-02-27T04:26:56.293Z,102429.52
2019-02-27T04:28:03.003Z,102424.89
2019-02-27T04:29:10.154Z,102425.78
2019-02-27T04:30:17.687Z,102423.55
2019-02-27T04:31:29.612Z,102421.45
2019-02-27T04:32:33.099Z,102421.07
2019-02-27T04:33:40.245Z,102421.09
2019-02-27T04:34:47.001Z,102421.20
2019-02-27T04:35:53.713Z,102417.36
2019-02-27T04:37:00.398Z,102413.62
2019-02-27T04:38:07.094Z,102418.67
2019-02-27T04:39:14.238Z,102419.17
2019-02-27T04:40:21.034Z,102422.53
2019-02-27T04:41:27.718Z,102418.73
2019-02-27T04:42:34.441Z,102417.95
2019-02-27T04:43:41.434Z,102419.28
2019-02-27T04:44:48.142Z,102417.95
2019-02-27T04:45:55.234Z,102422.06
2019-02-27T04:47:01.959Z,102421.16
2019-02-27T04:48:08.673Z,102424.09
2019-02-27T04:49:15.379Z,102423.60
2019-02-27T04:50:22.195Z,102430.78
2019-02-27T04:51:28.875Z,102426.33
2019-02-27T04:52:35.569Z,102430.25
2019-02-27T04:53:42.249Z,102434.94
2019-02-27T04:54:48.990Z,102430.23
2019-02-27T04:55:55.940Z,102426.81
2019-02-27T04:57:02.960Z,102423.44
2019-02-27T04:58:09.755Z,102425.91
2019-02-27T04:59:18.751Z,102430.97
2019-02-27T05:00:26.269Z,102426.73
2019-02-27T05:01:36.421Z,102430.48
2019-02-27T05:02:41.600Z,102425.25
2019-02-27T05:03:48.659Z,102421.81
2019-02-27T05:04:55.974Z,102419.17
2019-02-27T05:06:02.673Z,102418.73
2019-02-27T05:07:09.516Z,102411.86
2019-02-27T05:08:16.301Z,102408.19
2019-02-27T05:09:23.609Z,102406.16
2019-02-27T05:10:30.483Z,102405.60
2019-02-27T05:11:37.186Z,102401.20
2019-02-27T05:12:47.816Z,102397.29
2019-02-27T05:13:54.329Z,102390.95
2019-02-27T05:15:00.856Z,102390.06
2019-02-27T05:16:09.064Z,102395.41
2019-02-27T05:17:15.783Z,102404.56
2019-02-27T05:18:22.503Z,102403.71
2019-02-27T05:19:29.333Z,102408.53
2019-02-27T05:20:36.387Z,102406.80
2019-02-27T05:21:43.416Z,102403.06
2019-02-27T05:22:50.426Z,102407.41
2019-02-27T05:23:57.124Z,102410.52
2019-02-27T05:25:04.313Z,102404.28
2019-02-27T05:26:11.039Z,102409.51
2019-02-27T05:27:17.993Z,102405.72
2019-02-27T05:28:24.728Z,102404.16
2019-02-27T05:29:31.392Z,102407.47
2019-02-27T05:30:38.160Z,102401.81
2019-02-27T05:31:45.279Z,102405.72
2019-02-27T05:32:51.962Z,102402.53
2019-02-27T05:33:59.435Z,102400.71
2019-02-27T05:35:06.350Z,102395.24
2019-02-27T05:36:13.171Z,102398.98
2019-02-27T05:37:20.131Z,102400.00
2019-02-27T05:38:26.917Z,102397.36
2019-02-27T05:39:33.883Z,102402.34
2019-02-27T05:40:41.090Z,102402.64
2019-02-27T05:41:47.812Z,102404.69
2019-02-27T05:42:54.832Z,102408.38
2019-02-27T05:44:01.601Z,102405.84
2019-02-27T05:45:10.605Z,102409.55
2019-02-27T05:46:17.313Z,102407.88
2019-02-27T05:47:24.349Z,102401.08
2019-02-27T05:48:31.532Z,102406.20
2019-02-27T05:49:38.417Z,102398.91
2019-02-27T05:50:45.603Z,102400.23
2019-02-27T05:51:52.267Z,102402.03
2019-02-27T05:52:58.941Z,102399.50
2019-02-27T05:54:05.644Z,102398.67
2019-02-27T05:55:12.385Z,102397.34
2019-02-27T05:56:19.459Z,102396.14
2019-02-27T05:57:26.128Z,102397.88
2019-02-27T05:58:32.843Z,102399.87
2019-02-27T05:59:39.581Z,102398.67
2019-02-27T06:00:46.749Z,102400.41
2019-02-27T06:01:53.481Z,102403.02
2019-02-27T06:03:00.793Z,102397.72
2019-02-27T06:04:07.779Z,102392.59
2019-02-27T06:05:14.792Z,102399.75
2019-02-27T06:06:21.447Z,102394.94
2019-02-27T06:07:28.502Z,102393.61
2019-02-27T06:08:38.007Z,102392.70
2019-02-27T06:09:44.492Z,102394.73
2019-02-27T06:10:55.136Z,102393.47
2019-02-27T06:11:59.636Z,102393.80
2019-02-27T06:13:06.318Z,102388.19
2019-02-27T06:14:12.988Z,102389.39
2019-02-27T06:15:19.694Z,102388.06
2019-02-27T06:16:26.421Z,102385.84
2019-02-27T06:17:43.092Z,102390.89
2019-02-27T06:18:42.871Z,102395.04
2019-02-27T06:19:49.585Z,102386.96
2019-02-27T06:20:56.318Z,102390.34
2019-02-27T06:22:03.014Z,102389.48
2019-02-27T06:23:10.029Z,102386.84
2019-02-27T06:24:16.755Z,102379.37
2019-02-27T06:25:24.087Z,102378.91
2019-02-27T06:26:32.474Z,102378.52
2019-02-27T06:27:39.960Z,102375.83
2019-02-27T06:28:47.155Z,102372.14
2019-02-27T06:29:56.643Z,102373.65
2019-02-27T06:31:03.230Z,102370.62
2019-02-27T06:32:12.269Z,102373.95
2019-02-27T06:33:18.420Z,102376.95
2019-02-27T06:34:25.428Z,102383.27
2019-02-27T06:35:34.253Z,102382.50
2019-02-27T06:36:42.751Z,102382.20
2019-02-27T06:37:50.746Z,102386.14
2019-02-27T06:39:00.413Z,102384.14
2019-02-27T06:40:08.082Z,102389.25
2019-02-27T06:41:15.654Z,102389.01
2019-02-27T06:42:23.023Z,102393.06
2019-02-27T06:43:29.735Z,102391.55
2019-02-27T06:44:36.594Z,102393.37
2019-02-27T06:45:46.387Z,102394.16
2019-02-27T06:46:54.623Z,102390.54
2019-02-27T06:48:01.518Z,102386.33
2019-02-27T06:49:08.538Z,102377.89
2019-02-27T06:50:16.319Z,102388.80
2019-02-27T06:51:23.291Z,102381.63
2019-02-27T06:52:30.267Z,102379.22
2019-02-27T06:53:37.369Z,102381.80
2019-02-27T06:54:44.062Z,102380.55
2019-02-27T06:55:51.094Z,102381.88
2019-02-27T06:56:58.066Z,102377.84
2019-02-27T06:58:04.795Z,102383.42
2019-02-27T06:59:12.117Z,102381.50
2019-02-27T07:00:20.462Z,102380.25
2019-02-27T07:01:27.185Z,102382.16
2019-02-27T07:02:34.172Z,102385.64
2019-02-27T07:03:41.373Z,102391.36
2019-02-27T07:04:48.737Z,102391.91
2019-02-27T07:05:55.427Z,102394.08
2019-02-27T07:07:02.166Z,102391.91
2019-02-27T07:08:08.910Z,102398.83
2019-02-27T07:09:15.571Z,102393.35
2019-02-27T07:10:22.620Z,102396.41
2019-02-27T07:11:29.271Z,102398.94
2019-02-27T07:12:35.980Z,102396.19
2019-02-27T07:13:43.488Z,102394.08
2019-02-27T07:14:50.221Z,102396.11
2019-02-27T07:15:57.162Z,102399.98
2019-02-27T07:17:04.224Z,102392.75
2019-02-27T07:18:11.916Z,102393.06
2019-02-27T07:19:19.116Z,102392.71
2019-02-27T07:20:25.810Z,102396.02
2019-02-27T07:21:33.488Z,102397.77
2019-02-27T07:22:40.372Z,102388.55
2019-02-27T07:23:47.156Z,102385.47
2019-02-27T07:24:54.507Z,102386.64
2019-02-27T07:26:01.194Z,102385.55
2019-02-27T07:27:07.924Z,102379.82
2019-02-27T07:28:14.561Z,102378.41
2019-02-27T07:29:26.699Z,102385.38
2019-02-27T07:30:29.654Z,102383.44
2019-02-27T07:31:36.346Z,102377.33
2019-02-27T07:32:43.290Z,102366.15
2019-02-27T07:33:49.945Z,102368.52
2019-02-27T07:34:56.644Z,102369.17
2019-02-27T07:36:04.248Z,102372.80
2019-02-27T07:37:12.937Z,102369.20
2019-02-27T07:38:21.632Z,102369.08
2019-02-27T07:39:32.597Z,102373.56
2019-02-27T07:40:37.021Z,102374.19
2019-02-27T07:41:44.055Z,102371.80
2019-02-27T07:42:50.736Z,102369.78
2019-02-27T07:43:57.773Z,102366.50
2019-02-27T07:45:04.654Z,102370.92
2019-02-27T07:46:11.382Z,102366.80
2019-02-27T07:47:18.055Z,102367.30
2019-02-27T07:48:25.022Z,102364.54
2019-02-27T07:49:31.826Z,102362.98
2019-02-27T07:50:38.950Z,102366.46
2019-02-27T07:51:46.047Z,102364.77
2019-02-27T07:52:52.810Z,102363.50
2019-02-27T07:53:59.443Z,102365.76
2019-02-27T07:55:18.646Z,102367.67
2019-02-27T07:56:15.282Z,102367.47
2019-02-27T07:57:21.930Z,102363.42
2019-02-27T07:58:29.278Z,102366.14
2019-02-27T07:59:38.249Z,102372.33
2019-02-27T08:00:47.102Z,102366.91
2019-02-27T08:01:54.202Z,102373.01
2019-02-27T08:03:00.898Z,102365.13
2019-02-27T08:04:07.978Z,102371.61
2019-02-27T08:05:15.053Z,102373.38
2019-02-27T08:06:23.551Z,102366.27
2019-02-27T08:07:30.467Z,102368.09
2019-02-27T08:08:37.157Z,102367.41
2019-02-27T08:09:43.818Z,102367.95
2019-02-27T08:10:50.505Z,102365.95
2019-02-27T08:11:57.195Z,102360.98
2019-02-27T08:13:04.495Z,102363.59
2019-02-27T08:14:12.888Z,102364.88
2019-02-27T08:15:20.132Z,102358.13
2019-02-27T08:16:27.165Z,102361.13
2019-02-27T08:17:34.262Z,102355.28
2019-02-27T08:18:40.927Z,102360.09
2019-02-27T08:19:47.652Z,102360.12
2019-02-27T08:20:54.495Z,102364.94
2019-02-27T08:22:01.914Z,102369.78
2019-02-27T08:23:08.589Z,102375.05
2019-02-27T08:24:15.248Z,102365.41
2019-02-27T08:25:22.007Z,102363.50
2019-02-27T08:26:29.026Z,102361.59
2019-02-27T08:27:35.751Z,102358.82
2019-02-27T08:28:42.470Z,102366.16
2019-02-27T08:29:49.130Z,102363.36
2019-02-27T08:30:55.814Z,102361.85
2019-02-27T08:32:05.275Z,102367.95
2019-02-27T08:33:12.057Z,102365.06
2019-02-27T08:34:18.686Z,102364.77
2019-02-27T08:35:25.772Z,102368.67
2019-02-27T08:36:32.485Z,102367.58
2019-02-27T08:37:39.822Z,102362.20
2019-02-27T08:38:46.573Z,102364.46
2019-02-27T08:39:53.629Z,102366.30
2019-02-27T08:41:00.630Z,102365.61
2019-02-27T08:42:07.423Z,102365.77
2019-02-27T08:43:14.508Z,102364.62
2019-02-27T08:44:21.273Z,102371.53
2019-02-27T08:45:27.930Z,102375.03
2019-02-27T08:46:37.006Z,102375.96
2019-02-27T08:47:44.300Z,102378.56
2019-02-27T08:48:51.946Z,102384.60
2019-02-27T08:49:58.675Z,102379.20
2019-02-27T08:51:08.637Z,102384.00
2019-02-27T08:52:16.255Z,102376.91
2019-02-27T08:53:25.986Z,102378.66
2019-02-27T08:54:33.005Z,102375.36
2019-02-27T08:55:40.776Z,102377.59
2019-02-27T08:56:47.971Z,102374.70
2019-02-27T08:57:56.930Z,102370.50
2019-02-27T08:59:05.863Z,102370.14
2019-02-27T09:00:17.886Z,102366.82
2019-02-27T09:01:24.810Z,102351.97
2019-02-27T09:02:31.477Z,102352.01
2019-02-27T09:03:38.508Z,102347.01
2019-02-27T09:04:45.432Z,102348.75
2019-02-27T09:05:53.693Z,102344.16
2019-02-27T09:07:02.742Z,102344.22
2019-02-27T09:08:10.108Z,102347.27
2019-02-27T09:09:17.819Z,102340.49
2019-02-27T09:10:26.823Z,102345.23
2019-02-27T09:11:34.148Z,102342.73
2019-02-27T09:12:40.851Z,102347.47
2019-02-27T09:13:47.516Z,102340.70
2019-02-27T09:14:56.052Z,102342.83
2019-02-27T09:16:03.099Z,102341.63
2019-02-27T09:17:09.907Z,102340.34
2019-02-27T09:18:16.640Z,102336.95
2019-02-27T09:19:23.316Z,102338.23
2019-02-27T09:20:30.309Z,102336.98
2019-02-27T09:21:37.246Z,102326.38
2019-02-27T09:22:44.255Z,102325.14
2019-02-27T09:23:50.987Z,102322.59
2019-02-27T09:24:57.991Z,102321.33
2019-02-27T09:26:04.797Z,102321.78
2019-02-27T09:27:11.833Z,102318.37
2019-02-27T09:28:18.521Z,102317.09
2019-02-27T09:29:25.268Z,102316.67
2019-02-27T09:30:32.318Z,102314.97
2019-02-27T09:31:47.812Z,102312.41
2019-02-27T09:32:48.033Z,102312.41
2019-02-27T09:33:54.715Z,102312.87
2019-02-27T09:35:01.685Z,102312.02
2019-02-27T09:36:10.361Z,102314.98
2019-02-27T09:37:17.862Z,102310.73
2019-02-27T09:38:24.928Z,102310.73
2019-02-27T09:39:31.964Z,102311.16
2019-02-27T09:40:39.559Z,102307.34
2019-02-27T09:41:47.075Z,102309.46
2019-02-27T09:42:54.258Z,102300.48
2019-02-27T09:44:01.395Z,102300.48
2019-02-27T09:45:20.136Z,102294.91
2019-02-27T09:46:27.392Z,102294.89
2019-02-27T09:47:34.639Z,102303.00
2019-02-27T09:48:41.888Z,102292.71
2019-02-27T09:49:48.993Z,102298.70
2019-02-27T09:50:56.992Z,102294.84
2019-02-27T09:52:03.858Z,102296.53
2019-02-27T09:53:10.531Z,102294.34
2019-02-27T09:54:17.176Z,102289.60
2019-02-27T09:55:24.182Z,102296.86
2019-02-27T09:56:32.747Z,102289.99
2019-02-27T09:57:39.655Z,102295.97
2019-02-27T09:58:46.387Z,102297.64
2019-02-27T09:59:53.560Z,102288.61
2019-02-27T10:01:13.909Z,102292.41
2019-02-27T10:02:20.968Z,102289.38
2019-02-27T10:03:28.158Z,102281.61
2019-02-27T10:04:35.526Z,102285.84
2019-02-27T10:05:42.214Z,102284.05
2019-02-27T10:06:49.237Z,102283.59
2019-02-27T10:07:57.503Z,102281.38
2019-02-27T10:09:06.093Z,102279.59
2019-02-27T10:10:12.767Z,102283.41
2019-02-27T10:11:22.107Z,102281.63
2019-02-27T10:12:28.241Z,102277.31
2019-02-27T10:13:35.453Z,102273.90
2019-02-27T10:14:43.318Z,102276.42
2019-02-27T10:15:50.035Z,102276.80
2019-02-27T10:16:56.709Z,102280.19
2019-02-27T10:18:03.749Z,102282.26
2019-02-27T10:19:10.457Z,102280.05
2019-02-27T10:20:17.479Z,102276.09
2019-02-27T10:21:24.455Z,102273.86
2019-02-27T10:22:31.695Z,102272.05
2019-02-27T10:23:38.392Z,102269.81
2019-02-27T10:24:45.999Z,102267.18
2019-02-27T10:25:53.237Z,102270.11
2019-02-27T10:27:00.016Z,102272.14
2019-02-27T10:28:06.946Z,102262.61
2019-02-27T10:29:14.250Z,102262.12
2019-02-27T10:30:21.084Z,102263.33
2019-02-27T10:31:27.767Z,102266.24
2019-02-27T10:32:36.688Z,102274.77
2019-02-27T10:33:43.669Z,102270.89
2019-02-27T10:34:53.676Z,102265.73
2019-02-27T10:36:03.253Z,102269.50
2019-02-27T10:37:07.725Z,102268.10
2019-02-27T10:38:14.833Z,102258.95
2019-02-27T10:39:21.619Z,102256.70
2019-02-27T10:40:28.366Z,102259.77
2019-02-27T10:41:35.024Z,102254.61
2019-02-27T10:42:42.485Z,102253.37
2019-02-27T10:43:49.496Z,102253.70
2019-02-27T10:44:57.848Z,102253.14
2019-02-27T10:46:05.116Z,102243.93
2019-02-27T10:47:12.281Z,102249.88
2019-02-27T10:48:19.036Z,102248.45
2019-02-27T10:49:25.701Z,102250.38
2019-02-27T10:50:35.518Z,102252.92
2019-02-27T10:51:43.785Z,102252.76
2019-02-27T10:52:50.581Z,102246.09
2019-02-27T10:54:02.441Z,102251.91
2019-02-27T10:55:05.864Z,102249.67
2019-02-27T10:56:12.648Z,102243.16
2019-02-27T10:57:19.813Z,102245.13
2019-02-27T10:58:26.501Z,102243.80
2019-02-27T10:59:33.180Z,102240.22
2019-02-27T11:00:40.187Z,102237.58
2019-02-27T11:01:48.559Z,102235.02
2019-02-27T11:02:55.426Z,102236.34
2019-02-27T11:04:03.121Z,102235.87
2019-02-27T11:05:10.523Z,102232.80
2019-02-27T11:06:17.204Z,102233.52
2019-02-27T11:07:23.925Z,102229.93
2019-02-27T11:08:30.603Z,102219.00
2019-02-27T11:09:38.311Z,102219.77
2019-02-27T11:10:47.018Z,102214.09
2019-02-27T11:11:53.985Z,102210.52
2019-02-27T11:13:05.721Z,102209.95
2019-02-27T11:14:10.285Z,102212.33
2019-02-27T11:15:18.032Z,102209.75
2019-02-27T11:16:24.750Z,102212.75
2019-02-27T11:17:31.745Z,102203.55
2019-02-27T11:18:38.706Z,102204.84
2019-02-27T11:19:45.895Z,102201.27
2019-02-27T11:20:55.722Z,102199.40
2019-02-27T11:22:01.626Z,102192.78
2019-02-27T11:23:08.437Z,102194.34
2019-02-27T11:24:17.326Z,102189.81
2019-02-27T11:25:24.180Z,102192.75
2019-02-27T11:26:33.327Z,102184.89
2019-02-27T11:27:39.795Z,102185.34
2019-02-27T11:28:47.704Z,102179.34
2019-02-27T11:29:59.614Z,102180.95
2019-02-27T11:31:04.094Z,102181.27
2019-02-27T11:32:11.094Z,102179.39
2019-02-27T11:33:25.748Z,102175.96
2019-02-27T11:34:26.456Z,102173.66
2019-02-27T11:35:33.503Z,102174.39
2019-02-27T11:36:40.169Z,102172.05
2019-02-27T11:37:47.797Z,102175.76
2019-02-27T11:38:56.704Z,102174.78
2019-02-27T11:40:05.344Z,102169.60
2019-02-27T11:41:14.918Z,102164.66
2019-02-27T11:42:20.749Z,102169.42
2019-02-27T11:43:27.735Z,102163.65
2019-02-27T11:44:34.479Z,102164.91
2019-02-27T11:45:41.249Z,102160.77
2019-02-27T11:46:58.451Z,102162.30
2019-02-27T11:47:56.695Z,102160.13
2019-02-27T11:49:03.760Z,102152.84
2019-02-27T11:50:14.675Z,102151.94
2019-02-27T11:51:21.292Z,102153.57
2019-02-27T11:52:28.820Z,102156.05
2019-02-27T11:53:36.539Z,102149.04
2019-02-27T11:54:43.932Z,102148.39
2019-02-27T11:55:50.617Z,102145.98
2019-02-27T11:56:57.637Z,102141.81
2019-02-27T11:58:05.485Z,102143.88
2019-02-27T11:59:12.985Z,102141.58
2019-02-27T12:00:26.840Z,102129.84
2019-02-27T12:01:33.491Z,102130.97
2019-02-27T12:02:40.928Z,102132.77
2019-02-27T12:03:47.622Z,102134.95
2019-02-27T12:04:56.677Z,102129.30
2019-02-27T12:06:05.355Z,102128.21
2019-02-27T12:07:12.346Z,102128.72
2019-02-27T12:08:19.607Z,102127.27
2019-02-27T12:09:26.885Z,102128.34
2019-02-27T12:10:33.691Z,102128.27
2019-02-27T12:11:40.813Z,102128.14
2019-02-27T12:12:47.439Z,102130.43
2019-02-27T12:13:54.888Z,102127.97
2019-02-27T12:15:01.679Z,102129.68
2019-02-27T12:16:10.664Z,102121.77
2019-02-27T12:17:17.471Z,102118.03
2019-02-27T12:18:24.510Z,102115.75
2019-02-27T12:19:31.194Z,102117.56
2019-02-27T12:20:38.370Z,102117.01
2019-02-27T12:21:45.023Z,102121.48
2019-02-27T12:22:52.360Z,102115.64
2019-02-27T12:23:59.028Z,102110.45
2019-02-27T12:25:06.374Z,102109.58
2019-02-27T12:26:13.448Z,102111.70
2019-02-27T12:27:42.750Z,102108.19
2019-02-27T12:28:28.539Z,102105.36
2019-02-27T12:29:35.231Z,102106.00
2019-02-27T12:30:41.933Z,102107.17
2019-02-27T12:31:49.026Z,102108.74
2019-02-27T12:32:56.991Z,102103.00
2019-02-27T12:34:03.895Z,102102.87
2019-02-27T12:35:15.385Z,102102.36
2019-02-27T12:36:22.133Z,102100.08
2019-02-27T12:37:34.097Z,102099.20
2019-02-27T12:38:39.290Z,102096.98
2019-02-27T12:39:47.247Z,102094.75
2019-02-27T12:40:58.241Z,102090.63
2019-02-27T12:42:04.240Z,102087.84
2019-02-27T12:43:17.388Z,102091.83
2019-02-27T12:44:20.221Z,102088.39
2019-02-27T12:45:29.530Z,102085.16
2019-02-27T12:46:37.081Z,102081.63
2019-02-27T12:47:44.759Z,102084.83
2019-02-27T12:48:51.465Z,102076.16
2019-02-27T12:49:58.108Z,102077.70
2019-02-27T12:51:05.278Z,102073.09
2019-02-27T12:52:12.351Z,102071.39
2019-02-27T12:53:21.596Z,102068.18
2019-02-27T12:54:29.969Z,102068.09
2019-02-27T12:55:36.661Z,102068.18
2019-02-27T12:56:44.551Z,102066.24
2019-02-27T12:57:52.988Z,102054.36
2019-02-27T12:58:59.944Z,102055.09
2019-02-27T13:00:09.071Z,102048.78
2019-02-27T13:01:16.365Z,102048.22
2019-02-27T13:02:34.616Z,102040.19
2019-02-27T13:03:32.421Z,102040.45
2019-02-27T13:04:39.153Z,102038.39
2019-02-27T13:05:45.793Z,102037.55
2019-02-27T13:06:52.845Z,102039.16
2019-02-27T13:07:59.793Z,102033.97
2019-02-27T13:09:08.132Z,102035.52
2019-02-27T13:10:18.035Z,102032.79
2019-02-27T13:11:24.761Z,102025.00
2019-02-27T13:12:31.704Z,102022.57
2019-02-27T13:13:38.835Z,102023.44
2019-02-27T13:14:45.482Z,102020.84
2019-02-27T13:15:52.131Z,102016.64
2019-02-27T13:16:59.285Z,102013.37
2019-02-27T13:18:06.497Z,102014.83
2019-02-27T13:19:13.198Z,102010.45
2019-02-27T13:20:22.740Z,102006.21
2019-02-27T13:21:29.479Z,102008.34
2019-02-27T13:22:36.260Z,102005.70
2019-02-27T13:23:43.307Z,102006.80
2019-02-27T13:24:50.961Z,102006.37
2019-02-27T13:26:00.456Z,102003.78
2019-02-27T13:27:09.012Z,102001.66
2019-02-27T13:28:15.428Z,101995.04
2019-02-27T13:29:23.115Z,101993.87
2019-02-27T13:30:30.486Z,101995.04
2019-02-27T13:31:37.176Z,101998.16
2019-02-27T13:32:43.921Z,101991.92
2019-02-27T13:33:50.707Z,101992.59
2019-02-27T13:34:57.389Z,101992.70
2019-02-27T13:36:04.396Z,101988.97
2019-02-27T13:37:11.109Z,101990.63